• Join FlightAware (Why Join?)
  • Login
  • US Flag 
01:04AM EDT


 

Airport Tracker/Info


-or-


 

Live Flight TrackerFlight Track Log ✈ AAL2345 ✈ 10-Jul-2013 ✈ KORD - KDFW

Flight Track Log - Related Links

Times and Time Zones

All times are in EDT time to prevent confusion due to time zone crossing. See the AAL2345 flight status page for this flight to view local times or setup timezone preferences in your user account.

Time Position Orientation Groundspeed Altitude Reporting Facility
EDT Latitude Longitude Course Direction KTS MPH feet Rate Location/Type
06:58PM 41.9667 -87.8167 200° South 226 260 3,400  Level Chicago TRACON
06:59PM 41.8681 -87.7844 166° South 284 327 6,500 2,460 Climbing Chicago Center
07:00PM 41.7897 -87.8058 192° South 290 334 9,500 2,820 Climbing Chicago Center
07:01PM 41.7056 -87.8764 212° Southwest 306 352 12,400 2,640 Climbing Chicago Center
07:02PM 41.6397 -87.9500 220° Southwest 310 357 15,000 2,040 Climbing Chicago Center
07:03PM 41.8997 -88.0039 200° South  Level Estimated
07:03PM 41.5661 -88.0206 216° Southwest 325 374 16,700  Level Chicago Center
07:05PM 41.4861 -88.1000 217° Southwest 362 417 18,200 1,860 Climbing Chicago Center
07:06PM 41.3794 -88.1928 213° Southwest 404 465 20,600 2,160 Climbing Chicago Center
07:07PM 41.2744 -88.2392 198° South 407 468 22,700 1,740 Climbing Chicago Center
07:08PM 41.1661 -88.2878 199° South 413 475 24,200 1,440 Climbing Chicago Center
07:09PM 41.0533 -88.3394 199° South 428 493 25,700 1,320 Climbing Chicago Center
07:10PM 40.9381 -88.3892 198° South 437 503 27,000 1,320 Climbing Chicago Center
07:11PM 40.7956 -88.4569 200° South 455 524 28,500 1,260 Climbing Chicago Center
07:12PM 40.6992 -88.5553 218° Southwest 446 513 29,700 1,380 Climbing Chicago Center
07:13PM 40.5986 -88.6436 214° Southwest 437 503 31,400 1,080 Climbing Chicago Center
07:14PM 40.5000 -88.7286 213° Southwest 430 495 32,000 960 Climbing Chicago Center
07:15PM 40.4075 -88.8061 213° Southwest 420 483 33,400 960 Climbing Chicago Center
07:16PM 40.2981 -88.9022 214° Southwest 399 459 34,000 240 Climbing Chicago Center
07:17PM 40.2044 -88.9822 213° Southwest 400 460 34,000  Level Chicago Center
07:18PM 40.1106 -89.0639 214° Southwest 404 465 34,000  Level Chicago Center
07:19PM 40.0164 -89.1425 213° Southwest 402 463 34,000  Level Kansas City Center
07:20PM 39.9225 -89.2228 213° Southwest 403 464 34,000  Level Kansas City Center
07:21PM 39.8272 -89.3031 213° Southwest 404 465 34,000  Level Kansas City Center
07:22PM 39.7325 -89.3836 213° Southwest 405 466 34,000  Level Kansas City Center
07:23PM 39.6356 -89.4656 213° Southwest 408 470 34,000  Level Kansas City Center
07:24PM 39.5397 -89.5481 214° Southwest 411 473 34,000  Level Kansas City Center
07:25PM 39.4439 -89.6267 212° Southwest 410 472 34,000  Level Kansas City Center
07:26PM 39.3483 -89.7103 214° Southwest 412 474 34,000  Level Kansas City Center
07:27PM 39.2339 -89.8058 213° Southwest 411 473 34,000  Level Kansas City Center
07:28PM 39.1339 -89.8886 213° Southwest 414 476 34,000  Level Kansas City Center
07:29PM 39.0361 -89.9844 217° Southwest 415 478 34,000  Level Kansas City Center
07:30PM 38.9750 -90.0878 233° Southwest 409 471 34,000  Level Kansas City Center
07:31PM 38.9061 -90.1992 232° Southwest 407 468 34,000  Level Kansas City Center
07:32PM 38.8197 -90.3361 231° Southwest 409 471 34,000  Level Kansas City Center
07:33PM 38.7450 -90.4517 230° Southwest 414 476 34,000  Level Kansas City Center
07:34PM 38.6761 -90.5742 234° Southwest 440 506 34,000  Level Kansas City Center
07:35PM 38.6242 -90.6986 242° Southwest 434 499 34,000  Level Kansas City Center
07:36PM 38.5731 -90.8267 243° Southwest 432 497 34,000  Level Kansas City Center
07:37PM 38.5111 -90.9833 243° Southwest 415 478 34,000  Level Kansas City Center
07:38PM 38.4589 -91.1147 243° Southwest 423 487 34,000  Level Kansas City Center
07:39PM 38.4061 -91.2467 243° Southwest 423 487 34,000  Level Kansas City Center
07:41PM 38.3475 -91.3917 243° Southwest 424 488 34,000  Level Kansas City Center
07:42PM 38.2919 -91.5228 242° Southwest 422 486 34,000  Level Kansas City Center
07:43PM 38.2164 -91.6375 230° Southwest 423 487 34,000  Level Kansas City Center
07:44PM 38.1353 -91.7494 227° Southwest 424 488 34,000  Level Kansas City Center
07:45PM 38.0508 -91.8547 224° Southwest 423 487 34,000  Level Kansas City Center
07:46PM 37.9686 -91.9628 226° Southwest 423 487 34,000  Level Kansas City Center
07:47PM 37.8775 -92.0833 226° Southwest 431 496 34,000  Level Kansas City Center
07:48PM 37.7936 -92.1897 225° Southwest 431 496 34,000  Level Kansas City Center
07:49PM 37.7081 -92.2978 225° Southwest 434 499 34,000  Level Kansas City Center
07:50PM 37.6247 -92.4067 226° Southwest 434 499 34,000  Level Kansas City Center
07:51PM 37.5411 -92.5133 225° Southwest 430 495 34,000  Level Kansas City Center
07:52PM 37.4400 -92.6422 225° Southwest 428 493 34,000  Level Kansas City Center
07:53PM 37.3558 -92.7486 225° Southwest 428 493 34,000  Level Kansas City Center
07:54PM 37.2703 -92.8547 225° Southwest 429 494 34,000  Level Kansas City Center
07:55PM 37.1861 -92.9600 225° Southwest 428 493 34,000  Level Kansas City Center
07:56PM 37.1000 -93.0669 225° Southwest 431 496 34,000  Level Kansas City Center
07:57PM 37.0142 -93.1761 225° Southwest 436 502 34,000  Level Kansas City Center
07:58PM 36.9275 -93.2817 224° Southwest 435 501 34,000  Level Kansas City Center
07:59PM 36.8406 -93.3917 225° Southwest 436 502 34,000  Level Kansas City Center
08:00PM 36.7553 -93.4994 225° Southwest 437 503 34,000  Level Kansas City Center
08:01PM 36.6689 -93.6047 224° Southwest 437 503 34,000  Level Kansas City Center
08:02PM 36.5653 -93.7314 224° Southwest 437 503 34,000  Level Kansas City Center
08:03PM 36.4783 -93.8383 225° Southwest 437 503 34,000  Level Kansas City Center
08:04PM 36.3922 -93.9439 225° Southwest 435 501 34,000  Level Kansas City Center
08:05PM 36.3192 -94.0378 226° Southwest 444 511 34,000  Level Memphis Center
08:06PM 36.2286 -94.1392 222° Southwest 444 511 34,000  Level Memphis Center
08:07PM 36.1217 -94.2242 213° Southwest 450 518 34,000  Level Memphis Center
08:08PM 36.0211 -94.3042 213° Southwest 450 518 34,000  Level Memphis Center
08:09PM 35.9142 -94.3911 213° Southwest 455 524 34,000  Level Memphis Center
08:10PM 35.8092 -94.4731 212° Southwest 455 524 34,000  Level Memphis Center
08:11PM 35.7064 -94.5575 214° Southwest 450 518 34,000  Level Memphis Center
08:13PM 35.4492 -94.7608 213° Southwest 440 506 34,000  Level Fort Worth Center
08:14PM 35.3403 -94.8458 212° Southwest 456 525 34,000  Level Fort Worth Center
08:15PM 35.2336 -94.9303 213° Southwest 470 541 34,000  Level Fort Worth Center
08:16PM 35.1289 -95.0122 213° Southwest 470 541 34,000  Level Fort Worth Center
08:17PM 35.0219 -95.1014 214° Southwest 470 541 34,000  Level Fort Worth Center
08:18PM 34.9175 -95.1981 217° Southwest 478 550 34,000  Level Fort Worth Center
08:19PM 34.8208 -95.2889 218° Southwest 473 544 34,000  Level Fort Worth Center
08:20PM 34.7203 -95.3850 218° Southwest 468 539 34,000  Level Fort Worth Center
08:21PM 34.6239 -95.4881 221° Southwest 468 539 34,000 -300 Level Fort Worth Center
08:22PM 34.5125 -95.5789 214° Southwest 473 544 33,400 -900 Descending Fort Worth Center
08:23PM 34.4033 -95.6617 212° Southwest 468 539 32,300 300 Descending Fort Worth Center
08:24PM 34.2894 -95.7394 209° Southwest 473 544 34,000 -2,040 Climbing Fort Worth Center
08:25PM 34.1736 -95.8169 209° Southwest 478 550 28,300 -3,900 Descending Fort Worth Center
08:26PM 34.0825 -95.8789 209° Southwest 451 519 26,200 -2,100 Descending Fort Worth Center
08:27PM 33.9686 -95.9483 207° Southwest 434 499 24,100 -2,100 Descending Fort Worth Center
08:28PM 33.8692 -96.0125 208° Southwest 416 479 22,100 -2,160 Descending Fort Worth Center
08:29PM 33.7803 -96.0764 211° Southwest 404 465 19,800 -2,340 Descending Fort Worth Center
08:30PM 33.6764 -96.1431 208° Southwest 404 465 17,500 -1,980 Descending Fort Worth Center
08:31PM 33.5936 -96.1967 208° Southwest 394 453 15,900 -2,100 Descending Fort Worth Center
08:32PM 33.5025 -96.2775 217° Southwest 383 441 13,400 -2,280 Descending Fort Worth Center
08:33PM 33.4364 -96.3581 225° Southwest 378 435 11,400 -1,260 Descending Fort Worth Center
08:34PM 33.3639 -96.4408 224° Southwest 345 397 10,900 -780 Descending Fort Worth Center
08:35PM 33.3333 -96.4833 229° Southwest 294 338 10,100 -1,380 Descending Dallas / Fort Worth TRACON
08:36PM 33.2667 -96.5500 220° Southwest 292 336 8,800 -1,500 Descending Dallas / Fort Worth TRACON
08:37PM 33.2167 -96.6167 228° Southwest 284 327 7,300 -1,740 Descending Dallas / Fort Worth TRACON
08:38PM 33.1833 -96.7000 244° Southwest 266 306 5,400 -1,200 Descending Dallas / Fort Worth TRACON
08:39PM 33.1500 -96.7833 244° Southwest 269 310 5,000 -480 Descending Dallas / Fort Worth TRACON
08:40PM 33.1167 -96.8500 239° Southwest 272 313 4,500 -960 Descending Dallas / Fort Worth TRACON
08:41PM 33.0667 -96.9500 239° Southwest 268 308 3,000 -1,380 Descending Dallas / Fort Worth TRACON